Terminal Aerodrome Forecast
Issued by NWS

Current Version | Previous Version | Text Only | Print | Product List | Glossary On
Versions: 1 2 3 4 5 6 7 8 9 10 11 12 13 14 15
000
FTUS41 KBTV 051733
TAFMPV
TAF
KMPV 051733Z 0518/0618 31010KT P6SM BKN150
     FM060100 VRB03KT P6SM SCT200
     FM060700 00000KT P6SM SKC=

USA.gov is the U.S. government's official web portal to all federal, state and local government web resources and services.